createdAt,value
2022-10-19T00:02:29.786Z,13.70
2022-10-19T00:05:02.522Z,13.69
2022-10-19T00:07:35.842Z,13.71
2022-10-19T00:10:09.529Z,13.69
2022-10-19T00:12:43.704Z,13.69
2022-10-19T00:15:16.714Z,13.64
2022-10-19T00:17:49.307Z,13.58
2022-10-19T00:20:22.011Z,13.61
2022-10-19T00:22:54.771Z,13.58
2022-10-19T00:25:27.591Z,13.54
2022-10-19T00:28:02.024Z,13.47
2022-10-19T00:30:38.149Z,13.54
2022-10-19T00:33:11.021Z,13.49
2022-10-19T00:35:43.907Z,13.48
2022-10-19T00:38:17.832Z,13.45
2022-10-19T00:40:50.952Z,13.43
2022-10-19T00:43:25.679Z,13.39
2022-10-19T00:45:58.351Z,13.34
2022-10-19T00:48:34.079Z,13.43
2022-10-19T00:51:06.809Z,13.43
2022-10-19T00:53:39.593Z,13.37
2022-10-19T00:56:15.612Z,13.30
2022-10-19T00:58:50.110Z,13.26
2022-10-19T01:01:25.634Z,13.27
2022-10-19T01:03:58.507Z,13.20
2022-10-19T01:06:31.655Z,13.24
2022-10-19T01:09:04.799Z,13.24
2022-10-19T01:11:46.681Z,13.17
2022-10-19T01:14:31.997Z,13.14
2022-10-19T01:17:12.105Z,13.12
2022-10-19T01:20:01.301Z,13.10
2022-10-19T01:22:52.391Z,13.11
2022-10-19T01:25:37.389Z,13.03
2022-10-19T01:28:26.091Z,13.07
2022-10-19T01:31:06.059Z,13.10
2022-10-19T01:33:48.398Z,13.00
2022-10-19T01:36:32.157Z,13.05
2022-10-19T01:39:11.561Z,13.06
2022-10-19T01:41:50.495Z,12.99
2022-10-19T01:44:28.856Z,12.97
2022-10-19T01:47:07.350Z,12.95
2022-10-19T01:49:44.748Z,12.96
2022-10-19T01:52:22.301Z,12.91
2022-10-19T01:54:59.113Z,12.89
2022-10-19T01:57:36.886Z,12.95
2022-10-19T02:00:14.564Z,12.93
2022-10-19T02:02:54.132Z,12.89
2022-10-19T02:05:31.684Z,12.91
2022-10-19T02:08:09.486Z,12.87
2022-10-19T02:10:45.822Z,12.84
2022-10-19T02:13:20.358Z,12.86
2022-10-19T02:15:56.133Z,12.83
2022-10-19T02:18:34.040Z,12.85
2022-10-19T02:21:07.771Z,12.87
2022-10-19T02:23:40.597Z,12.78
2022-10-19T02:26:13.603Z,12.78
2022-10-19T02:28:46.843Z,12.78
2022-10-19T02:31:19.620Z,12.78
2022-10-19T02:33:54.406Z,12.72
2022-10-19T02:36:27.401Z,12.71
2022-10-19T02:39:00.049Z,12.74
2022-10-19T02:41:37.750Z,12.60
2022-10-19T02:44:19.076Z,12.67
2022-10-19T02:46:56.245Z,12.64
2022-10-19T02:49:31.773Z,12.65
2022-10-19T02:52:06.787Z,12.61
2022-10-19T02:54:40.995Z,12.60
2022-10-19T02:57:18.006Z,12.53
2022-10-19T02:59:51.709Z,12.53
2022-10-19T03:02:24.607Z,12.55
2022-10-19T03:04:58.819Z,12.52
2022-10-19T03:07:31.957Z,12.54
2022-10-19T03:10:05.331Z,12.52
2022-10-19T03:12:38.092Z,12.50
2022-10-19T03:15:15.711Z,12.45
2022-10-19T03:17:48.520Z,12.39
2022-10-19T03:20:22.687Z,12.39
2022-10-19T03:22:55.358Z,12.38
2022-10-19T03:25:28.183Z,12.44
2022-10-19T03:28:01.186Z,12.36
2022-10-19T03:30:33.768Z,12.33
2022-10-19T03:33:06.472Z,12.36
2022-10-19T03:35:40.696Z,12.36
2022-10-19T03:38:13.385Z,12.32
2022-10-19T03:40:46.465Z,12.29
2022-10-19T03:43:19.050Z,12.26
2022-10-19T03:45:51.791Z,12.21
2022-10-19T03:48:24.710Z,12.20
2022-10-19T03:51:03.343Z,12.25
2022-10-19T03:53:36.661Z,12.21
2022-10-19T03:56:12.567Z,12.19
2022-10-19T03:58:46.478Z,12.21
2022-10-19T04:01:22.022Z,12.20
2022-10-19T04:03:55.102Z,12.21
2022-10-19T04:06:29.900Z,12.18
2022-10-19T04:09:03.459Z,12.20
2022-10-19T04:11:37.054Z,12.21
2022-10-19T04:16:42.939Z,12.16
2022-10-19T04:19:16.235Z,12.17
2022-10-19T04:21:50.864Z,12.18
2022-10-19T04:24:24.027Z,12.20
2022-10-19T04:26:57.758Z,12.21
2022-10-19T04:29:30.924Z,12.16
2022-10-19T04:32:03.739Z,12.15
2022-10-19T04:34:39.267Z,12.18
2022-10-19T04:37:14.353Z,12.12
2022-10-19T04:39:47.167Z,12.18
2022-10-19T04:42:20.330Z,12.13
2022-10-19T04:44:53.174Z,12.10
2022-10-19T04:47:25.971Z,12.13
2022-10-19T04:49:58.652Z,12.06
2022-10-19T04:52:35.224Z,12.16
2022-10-19T04:55:08.592Z,12.09
2022-10-19T04:57:41.496Z,12.10
2022-10-19T05:00:15.797Z,12.04
2022-10-19T05:02:48.558Z,12.10
2022-10-19T05:05:21.279Z,12.01
2022-10-19T05:07:55.453Z,12.09
2022-10-19T05:10:28.420Z,12.08
2022-10-19T05:13:02.329Z,12.06
2022-10-19T05:15:35.128Z,12.04
2022-10-19T05:18:11.423Z,12.04
2022-10-19T05:20:44.454Z,12.04
2022-10-19T05:23:19.052Z,12.03
2022-10-19T05:26:00.752Z,12.01
2022-10-19T05:28:34.463Z,12.05
2022-10-19T05:31:09.755Z,11.99
2022-10-19T05:33:43.612Z,12.01
2022-10-19T05:36:19.488Z,12.02
2022-10-19T05:38:54.993Z,11.99
2022-10-19T05:41:28.262Z,12.04
2022-10-19T05:44:03.280Z,12.00
2022-10-19T05:46:36.159Z,11.97
2022-10-19T05:49:09.530Z,11.95
2022-10-19T05:51:43.051Z,11.92
2022-10-19T05:54:17.728Z,11.92
2022-10-19T05:56:50.949Z,11.91
2022-10-19T05:59:24.549Z,11.98
2022-10-19T06:01:57.394Z,11.91
2022-10-19T06:04:30.397Z,11.94
2022-10-19T06:07:03.439Z,11.96
2022-10-19T06:09:37.646Z,11.89
2022-10-19T06:12:10.929Z,11.83
2022-10-19T06:14:44.299Z,11.85
2022-10-19T06:17:17.254Z,11.85
2022-10-19T06:19:50.223Z,11.88
2022-10-19T06:22:23.194Z,11.84
2022-10-19T06:24:57.478Z,11.82
2022-10-19T06:27:33.100Z,11.76
2022-10-19T06:30:07.918Z,11.71
2022-10-19T06:32:40.982Z,11.79
2022-10-19T06:35:17.197Z,11.74
2022-10-19T06:37:50.170Z,11.73
2022-10-19T06:40:24.682Z,11.73
2022-10-19T06:42:58.607Z,11.75
2022-10-19T06:46:00.978Z,11.73
2022-10-19T06:48:34.022Z,11.78
2022-10-19T06:51:35.794Z,11.78
2022-10-19T06:54:48.017Z,11.75
2022-10-19T06:57:27.379Z,11.74
2022-10-19T07:00:00.614Z,11.76
2022-10-19T07:02:37.139Z,11.75
2022-10-19T07:05:13.658Z,11.74
2022-10-19T07:07:48.970Z,11.78
2022-10-19T07:10:24.781Z,11.74
2022-10-19T07:12:59.287Z,11.69
2022-10-19T07:15:33.401Z,11.73
2022-10-19T07:18:06.602Z,11.79
2022-10-19T07:20:40.818Z,11.74
2022-10-19T07:23:13.901Z,11.79
2022-10-19T07:25:52.920Z,11.84
2022-10-19T07:28:27.672Z,11.87
2022-10-19T07:31:06.355Z,11.84
2022-10-19T07:33:39.677Z,11.91
2022-10-19T07:36:14.016Z,11.93
2022-10-19T07:38:47.030Z,11.97
2022-10-19T07:41:20.947Z,11.96
2022-10-19T07:43:57.860Z,12.01
2022-10-19T07:46:33.509Z,12.00
2022-10-19T07:49:11.188Z,12.04
2022-10-19T07:51:44.093Z,12.04
2022-10-19T07:54:18.195Z,12.07
2022-10-19T07:56:55.782Z,12.14
2022-10-19T08:00:07.943Z,12.17
2022-10-19T08:03:28.075Z,12.10
2022-10-19T08:05:43.588Z,12.15
2022-10-19T08:08:16.598Z,12.32
2022-10-19T08:10:49.486Z,12.33
2022-10-19T08:13:22.655Z,12.30
2022-10-19T08:15:57.109Z,12.39
2022-10-19T08:18:30.235Z,12.46
2022-10-19T08:21:03.454Z,12.51
2022-10-19T08:23:36.484Z,12.56
2022-10-19T08:26:10.123Z,12.67
2022-10-19T08:28:43.174Z,12.78
2022-10-19T08:31:18.653Z,12.72
2022-10-19T08:33:54.325Z,12.71
2022-10-19T08:39:29.123Z,12.85
2022-10-19T08:42:05.613Z,12.91
2022-10-19T08:44:59.879Z,12.98
2022-10-19T08:47:48.675Z,13.09
2022-10-19T08:50:24.924Z,13.15
2022-10-19T08:53:03.121Z,13.13
2022-10-19T08:55:55.186Z,13.30
2022-10-19T08:58:40.176Z,13.34
2022-10-19T09:01:24.245Z,13.31
2022-10-19T09:04:03.884Z,13.49
2022-10-19T09:06:48.617Z,13.42
2022-10-19T09:09:22.211Z,13.50
2022-10-19T09:12:02.084Z,13.64
2022-10-19T09:14:39.840Z,13.65
2022-10-19T09:17:17.041Z,13.74
2022-10-19T09:19:51.816Z,13.82
2022-10-19T09:22:33.549Z,13.98
2022-10-19T09:25:15.738Z,14.05
2022-10-19T09:28:03.227Z,13.95
2022-10-19T09:30:39.068Z,14.02
2022-10-19T09:33:24.635Z,14.11
2022-10-19T09:36:01.720Z,14.33
2022-10-19T09:38:34.669Z,14.29
2022-10-19T09:41:17.696Z,14.32
2022-10-19T09:43:55.597Z,14.41
2022-10-19T09:46:53.897Z,14.37
2022-10-19T09:49:43.263Z,14.56
2022-10-19T09:52:35.806Z,14.56
2022-10-19T09:55:24.804Z,14.71
2022-10-19T10:01:43.829Z,14.88
2022-10-19T10:04:23.535Z,14.91
2022-10-19T10:07:04.981Z,15.04
2022-10-19T10:09:44.518Z,15.05
2022-10-19T10:13:13.423Z,15.06
2022-10-19T10:16:01.234Z,15.06
2022-10-19T10:19:07.235Z,15.20
2022-10-19T10:22:06.287Z,15.24
2022-10-19T10:24:51.944Z,15.29
2022-10-19T10:27:34.540Z,15.42
2022-10-19T10:30:11.495Z,15.52
2022-10-19T10:32:50.383Z,15.48
2022-10-19T10:35:27.316Z,15.55
2022-10-19T10:38:15.957Z,15.90
2022-10-19T10:40:55.616Z,15.79
2022-10-19T10:43:32.314Z,15.87
2022-10-19T10:46:08.765Z,15.95
2022-10-19T10:48:46.444Z,15.86
2022-10-19T10:51:30.227Z,16.01
2022-10-19T10:54:21.321Z,16.08
2022-10-19T10:57:14.164Z,16.40
2022-10-19T11:00:03.842Z,16.60
2022-10-19T11:02:48.153Z,16.47
2022-10-19T11:05:27.592Z,16.39
2022-10-19T11:08:08.814Z,16.71
2022-10-19T11:10:48.730Z,16.65
2022-10-19T11:13:33.768Z,16.88
2022-10-19T11:16:16.104Z,16.63
2022-10-19T11:18:55.301Z,16.69
2022-10-19T11:21:35.224Z,17.09
2022-10-19T11:24:20.390Z,17.06
2022-10-19T11:27:07.100Z,16.98
2022-10-19T11:29:56.076Z,17.12
2022-10-19T11:32:42.397Z,17.09
2022-10-19T11:35:31.500Z,17.13
2022-10-19T11:38:22.698Z,17.42
2022-10-19T11:41:23.369Z,17.32
2022-10-19T11:44:24.333Z,17.37
2022-10-19T11:47:16.237Z,17.51
2022-10-19T11:50:03.542Z,17.54
2022-10-19T11:52:48.828Z,17.64
2022-10-19T11:55:35.485Z,17.92
2022-10-19T11:58:45.253Z,18.00
2022-10-19T12:01:42.636Z,18.04
2022-10-19T12:04:38.266Z,18.03
2022-10-19T12:07:27.684Z,18.16
2022-10-19T12:10:11.960Z,18.18
2022-10-19T12:12:48.773Z,18.29
2022-10-19T12:15:28.268Z,18.18
2022-10-19T12:18:11.213Z,18.17
2022-10-19T12:20:50.199Z,18.19
2022-10-19T12:23:27.956Z,18.38
2022-10-19T12:26:04.005Z,18.46
2022-10-19T12:28:40.086Z,18.55
2022-10-19T12:31:13.755Z,18.73
2022-10-19T12:33:53.057Z,18.66
2022-10-19T12:36:38.072Z,18.72
2022-10-19T12:39:18.789Z,18.66
2022-10-19T12:42:14.865Z,18.66
2022-10-19T12:45:31.451Z,18.78
2022-10-19T12:48:22.266Z,18.72
2022-10-19T12:51:21.883Z,18.75
2022-10-19T12:54:17.427Z,18.74
2022-10-19T12:56:53.658Z,18.66
2022-10-19T12:59:32.588Z,18.53
2022-10-19T13:02:24.131Z,18.38
2022-10-19T13:05:01.594Z,18.29
2022-10-19T13:07:37.289Z,18.37
2022-10-19T13:10:22.324Z,18.35
2022-10-19T13:12:55.853Z,18.20
2022-10-19T13:16:02.574Z,18.26
2022-10-19T13:19:18.424Z,18.13
2022-10-19T13:22:08.993Z,18.02
2022-10-19T13:24:55.938Z,18.02
2022-10-19T13:27:40.427Z,17.84
2022-10-19T13:30:46.748Z,17.86
2022-10-19T13:33:45.919Z,17.81
2022-10-19T13:36:20.235Z,17.79
2022-10-19T13:39:13.980Z,17.74
2022-10-19T13:41:52.775Z,17.72
2022-10-19T13:44:35.442Z,17.53
2022-10-19T13:47:35.737Z,17.64
2022-10-19T13:50:24.307Z,17.56
2022-10-19T13:53:28.799Z,17.43
2022-10-19T13:56:32.552Z,17.36
2022-10-19T13:59:15.248Z,17.38
2022-10-19T14:02:19.046Z,17.34
2022-10-19T14:04:58.205Z,17.37
2022-10-19T14:07:40.300Z,17.20
2022-10-19T14:10:18.457Z,17.12
2022-10-19T14:12:53.614Z,17.05
2022-10-19T14:15:29.572Z,17.13
2022-10-19T14:18:05.951Z,17.25
2022-10-19T14:20:40.284Z,17.14
2022-10-19T14:23:21.383Z,17.06
2022-10-19T14:25:56.718Z,17.07
2022-10-19T14:28:30.377Z,17.00
2022-10-19T14:31:05.941Z,16.97
2022-10-19T14:33:42.828Z,16.94
2022-10-19T14:36:19.063Z,16.90
2022-10-19T14:38:55.739Z,16.78
2022-10-19T14:41:49.407Z,16.79
2022-10-19T14:44:40.092Z,16.81
2022-10-19T14:47:23.880Z,16.73
2022-10-19T14:49:58.548Z,16.67
2022-10-19T14:52:39.533Z,16.63
2022-10-19T14:55:21.183Z,16.68
2022-10-19T14:57:55.199Z,16.64
2022-10-19T15:00:30.816Z,16.62
2022-10-19T15:03:07.859Z,16.62
2022-10-19T15:05:49.539Z,16.57
2022-10-19T15:08:31.435Z,16.53
2022-10-19T15:11:06.140Z,16.54
2022-10-19T15:13:43.455Z,16.46
2022-10-19T15:16:50.674Z,16.47
2022-10-19T15:19:29.717Z,16.40
2022-10-19T15:22:18.222Z,16.43
2022-10-19T15:25:20.821Z,16.40
2022-10-19T15:27:54.458Z,16.39
2022-10-19T15:30:30.461Z,16.38
2022-10-19T15:33:21.355Z,16.41
2022-10-19T15:36:04.637Z,16.33
2022-10-19T15:38:39.230Z,16.27
2022-10-19T15:41:22.559Z,16.37
2022-10-19T15:43:56.857Z,16.30
2022-10-19T15:46:34.918Z,16.29
2022-10-19T15:49:51.446Z,16.28
2022-10-19T15:52:26.227Z,16.23
2022-10-19T15:55:01.982Z,16.26
2022-10-19T15:57:36.742Z,16.23
2022-10-19T16:00:13.588Z,16.24
2022-10-19T16:02:46.514Z,16.20
2022-10-19T16:05:19.362Z,16.17
2022-10-19T16:07:52.232Z,16.20
2022-10-19T16:10:28.899Z,16.16
2022-10-19T16:13:01.885Z,16.12
2022-10-19T16:15:34.715Z,16.17
2022-10-19T16:18:08.253Z,16.12
2022-10-19T16:20:42.807Z,16.07
2022-10-19T16:23:16.121Z,16.05
2022-10-19T16:25:50.460Z,16.04
2022-10-19T16:28:23.215Z,15.96
2022-10-19T16:30:57.063Z,15.97
2022-10-19T16:33:29.904Z,15.94
2022-10-19T16:36:05.675Z,15.89
2022-10-19T16:38:38.554Z,15.85
2022-10-19T16:41:13.377Z,15.82
2022-10-19T16:43:48.181Z,15.73
2022-10-19T16:46:22.822Z,15.82
2022-10-19T16:48:55.692Z,15.80
2022-10-19T16:51:36.214Z,15.72
2022-10-19T16:54:11.740Z,15.64
2022-10-19T16:56:48.641Z,15.52
2022-10-19T16:59:21.708Z,15.60
2022-10-19T17:01:57.520Z,15.55
2022-10-19T17:04:30.524Z,15.54
2022-10-19T17:07:03.363Z,15.49
2022-10-19T17:09:41.969Z,15.56
2022-10-19T17:12:17.642Z,15.50
2022-10-19T17:14:51.333Z,15.45
2022-10-19T17:17:26.779Z,15.34
2022-10-19T17:19:59.734Z,15.27
2022-10-19T17:22:33.307Z,15.32
2022-10-19T17:25:07.351Z,15.34
2022-10-19T17:27:41.627Z,15.33
2022-10-19T17:30:14.884Z,15.29
2022-10-19T17:32:48.048Z,15.25
2022-10-19T17:35:20.852Z,15.33
2022-10-19T17:37:53.963Z,15.23
2022-10-19T17:40:26.722Z,15.18
2022-10-19T17:43:01.530Z,15.18
2022-10-19T17:45:37.833Z,15.20
2022-10-19T17:48:10.927Z,15.06
2022-10-19T17:50:43.729Z,15.17
2022-10-19T17:53:16.582Z,15.15
2022-10-19T17:55:49.507Z,15.08
2022-10-19T17:58:24.042Z,15.01
2022-10-19T18:00:58.663Z,15.11
2022-10-19T18:03:33.612Z,15.05
2022-10-19T18:06:10.602Z,15.11
2022-10-19T18:08:46.972Z,15.05
2022-10-19T18:11:21.697Z,14.99
2022-10-19T18:14:01.838Z,14.97
2022-10-19T18:16:37.165Z,14.98
2022-10-19T18:19:10.489Z,14.99
2022-10-19T18:21:45.015Z,14.86
2022-10-19T18:24:22.380Z,14.81
2022-10-19T18:26:55.180Z,14.77
2022-10-19T18:29:29.422Z,14.75
2022-10-19T18:32:02.420Z,14.73
2022-10-19T18:34:35.751Z,14.73
2022-10-19T18:37:08.568Z,14.59
2022-10-19T18:39:41.699Z,14.70
2022-10-19T18:42:14.539Z,14.67
2022-10-19T18:44:48.685Z,14.58
2022-10-19T18:47:21.564Z,14.67
2022-10-19T18:49:55.623Z,14.58
2022-10-19T18:52:28.653Z,14.58
2022-10-19T18:55:07.421Z,14.56
2022-10-19T18:57:40.501Z,14.55
2022-10-19T19:00:15.590Z,14.57
2022-10-19T19:02:56.413Z,14.45
2022-10-19T19:05:29.594Z,14.43
2022-10-19T19:08:02.482Z,14.48
2022-10-19T19:10:35.441Z,14.42
2022-10-19T19:13:11.175Z,14.42
2022-10-19T19:15:46.094Z,14.33
2022-10-19T19:18:18.885Z,14.38
2022-10-19T19:20:52.204Z,14.44
2022-10-19T19:23:25.016Z,14.24
2022-10-19T19:25:58.201Z,14.33
2022-10-19T19:28:36.509Z,14.29
2022-10-19T19:31:16.019Z,14.29
2022-10-19T19:33:49.593Z,14.34
2022-10-19T19:36:22.854Z,14.32
2022-10-19T19:38:56.727Z,14.34
2022-10-19T19:41:31.211Z,14.27
2022-10-19T19:44:04.137Z,14.30
2022-10-19T19:46:38.911Z,14.26
2022-10-19T19:49:12.308Z,14.27
2022-10-19T19:51:48.359Z,14.26
2022-10-19T19:54:21.819Z,14.22
2022-10-19T19:56:55.289Z,14.26
2022-10-19T19:59:28.141Z,14.22
2022-10-19T20:02:02.457Z,14.25
2022-10-19T20:04:35.394Z,14.23
2022-10-19T20:07:08.261Z,14.19
2022-10-19T20:09:41.148Z,14.24
2022-10-19T20:12:14.549Z,14.12
2022-10-19T20:14:47.568Z,14.17
2022-10-19T20:17:24.066Z,14.08
2022-10-19T20:19:56.902Z,14.11
2022-10-19T20:22:30.153Z,14.12
2022-10-19T20:25:03.512Z,14.08
2022-10-19T20:27:37.260Z,13.99
2022-10-19T20:30:11.570Z,13.99
2022-10-19T20:32:45.765Z,14.05
2022-10-19T20:35:18.522Z,14.12
2022-10-19T20:37:51.400Z,14.07
2022-10-19T20:40:24.236Z,13.98
2022-10-19T20:42:57.423Z,14.09
2022-10-19T20:45:30.336Z,14.02
2022-10-19T20:48:04.666Z,14.02
2022-10-19T20:50:37.401Z,13.96
2022-10-19T20:53:11.216Z,13.92
2022-10-19T20:55:43.883Z,13.85
2022-10-19T20:58:16.660Z,13.86
2022-10-19T21:00:49.439Z,13.87
2022-10-19T21:03:23.992Z,13.89
2022-10-19T21:05:56.643Z,13.85
2022-10-19T21:08:29.388Z,13.86
2022-10-19T21:11:02.315Z,13.85
2022-10-19T21:13:34.983Z,13.91
2022-10-19T21:16:12.363Z,13.83
2022-10-19T21:18:49.027Z,13.84
2022-10-19T21:21:23.759Z,13.80
2022-10-19T21:23:58.452Z,13.85
2022-10-19T21:26:33.048Z,13.76
2022-10-19T21:29:09.553Z,13.80
2022-10-19T21:31:47.828Z,13.78
2022-10-19T21:34:24.809Z,13.81
2022-10-19T21:36:57.966Z,13.81
2022-10-19T21:39:30.794Z,13.74
2022-10-19T21:42:03.598Z,13.68
2022-10-19T21:44:36.367Z,13.76
2022-10-19T21:47:09.160Z,13.63
2022-10-19T21:49:43.475Z,13.71
2022-10-19T21:52:16.311Z,13.67
2022-10-19T21:54:49.109Z,13.68
2022-10-19T21:57:21.711Z,13.71
2022-10-19T21:59:54.507Z,13.68
2022-10-19T22:02:27.195Z,13.62
2022-10-19T22:05:01.402Z,13.63
2022-10-19T22:07:34.480Z,13.57
2022-10-19T22:10:07.933Z,13.55
2022-10-19T22:12:40.673Z,13.56
2022-10-19T22:15:13.803Z,13.49
2022-10-19T22:17:46.563Z,13.63
2022-10-19T22:20:20.719Z,13.57
2022-10-19T22:22:54.975Z,13.54
2022-10-19T22:25:28.062Z,13.48
2022-10-19T22:28:01.629Z,13.55
2022-10-19T22:33:08.445Z,13.52
2022-10-19T22:35:42.615Z,13.55
2022-10-19T22:38:15.311Z,13.49
2022-10-19T22:41:43.144Z,13.48
2022-10-19T22:44:34.689Z,13.45
2022-10-19T22:47:07.558Z,13.46
2022-10-19T22:49:40.263Z,13.46
2022-10-19T22:52:14.339Z,13.38
2022-10-19T22:54:47.067Z,13.46
2022-10-19T22:57:19.813Z,13.34
2022-10-19T22:59:52.553Z,13.37
2022-10-19T23:02:25.363Z,13.41
2022-10-19T23:04:59.505Z,13.43
2022-10-19T23:07:34.358Z,13.36
2022-10-19T23:10:07.992Z,13.39
2022-10-19T23:12:40.896Z,13.43
2022-10-19T23:15:13.850Z,13.35
2022-10-19T23:17:47.431Z,13.34
2022-10-19T23:20:20.300Z,13.36
2022-10-19T23:22:54.547Z,13.28
2022-10-19T23:25:27.544Z,13.31
2022-10-19T23:28:00.355Z,13.34
2022-10-19T23:30:33.074Z,13.29
2022-10-19T23:33:06.922Z,13.29
2022-10-19T23:35:39.597Z,13.36
2022-10-19T23:38:13.795Z,13.33
2022-10-19T23:40:46.780Z,13.36
2022-10-19T23:43:19.405Z,13.32
2022-10-19T23:45:52.214Z,13.33
2022-10-19T23:48:25.012Z,13.36
2022-10-19T23:50:59.444Z,13.35
2022-10-19T23:53:39.882Z,13.28
2022-10-19T23:56:17.184Z,13.38
2022-10-19T23:58:50.481Z,13.37
